In Rescue
 
Open Full Screen Window  High Contrast Mode
Wind Gusting 00 knots
04
June 22, 2024 9:16 PM EDT
Present Weather: Light Rain
Weather Information
Wind Direction
  260 °
Wind Speed
  04 kt (5 mph)
Wind Gust
  00 kt (0 mph)
Altimeter
29.73 in
Visibility
7 SM
Temperature
23° C
73° F
Dewpoint
22° C
72° F
Humidity
94%
Sky Condition
Overcast @ 8,000 ft
Scattered @ 5,500 ft
Scattered @ 2,800 ft
VFR

METAR KMOP 230116Z AUTO 26004KT 7SM -RA SCT028 SCT055 OVC080 23/22 A2973 RMK AO2 T02310223

FAA Disclaimer: The data displayed is for advisory purposes only and is not to be used for flight planning or operations.